Time;durP1;ratioP1;P1;durP2;ratioP2;P2;SDS_P1;SDS_P2;PMS_P1;PMS_P2;Temp;Humidity;BMP_temperature;BMP_pressure;BME280_temperature;BME280_humidity;BME280_pressure;Samples;Min_cycle;Max_cycle;Signal;HPM_P1;HPM_P2
2023/09/17 00:00:16;;;;;;;19.77;16.93;;;;;;;;;;5072636;28;20035;-69
2023/09/17 00:02:42;;;;;;;24.65;19.42;;;;;;;;;;5077777;28;20262;-70
2023/09/17 00:05:07;;;;;;;27.23;20.30;;;;;;;;;;5080076;28;20070;-70
2023/09/17 00:07:32;;;;;;;31.95;22.10;;;;;;;;;;5077989;28;20286;-72
2023/09/17 00:09:58;;;;;;;30.27;24.13;;;;;;;;;;5086139;28;20492;-68
2023/09/17 00:12:23;;;;;;;32.13;25.88;;;;;;;;;;5094533;28;20024;-67
2023/09/17 00:14:48;;;;;;;33.13;27.50;;;;;;;;;;5094297;28;20024;-68
2023/09/17 00:17:13;;;;;;;34.05;27.08;;;;;;;;;;5074635;28;20029;-68
2023/09/17 00:19:39;;;;;;;28.38;24.42;;;;;;;;;;5087978;28;20020;-72
2023/09/17 00:22:06;;;;;;;32.70;25.75;;;;;;;;;;5090130;28;20056;-68
2023/09/17 00:24:32;;;;;;;34.22;26.52;;;;;;;;;;5092281;28;20016;-68
2023/09/17 00:26:58;;;;;;;31.95;27.30;;;;;;;;;;5090020;28;20482;-68
2023/09/17 00:29:25;;;;;;;38.40;30.17;;;;;;;;;;5091771;28;20052;-68
2023/09/17 00:31:50;;;;;;;37.05;27.67;;;;;;;;;;5090770;28;20046;-68
2023/09/17 00:34:15;;;;;;;37.73;31.40;;;;;;;;;;5094543;28;20024;-68
2023/09/17 00:36:40;;;;;;;33.77;30.23;;;;;;;;;;5093086;28;20270;-68
2023/09/17 00:39:06;;;;;;;38.13;31.45;;;;;;;;;;5093684;28;20772;-69
2023/09/17 00:41:32;;;;;;;36.95;31.73;;;;;;;;;;5092728;28;20012;-68
2023/09/17 00:43:57;;;;;;;40.25;33.20;;;;;;;;;;5093470;28;20024;-69
2023/09/17 00:46:22;;;;;;;41.15;34.53;;;;;;;;;;5090837;28;20024;-69
2023/09/17 00:48:47;;;;;;;41.88;34.63;;;;;;;;;;5082616;28;20028;-68
2023/09/17 00:51:13;;;;;;;41.83;35.85;;;;;;;;;;5075262;28;20020;-68
2023/09/17 00:53:40;;;;;;;43.22;36.30;;;;;;;;;;5074794;28;20024;-67
2023/09/17 00:56:05;;;;;;;44.45;36.22;;;;;;;;;;5079769;28;20096;-68
2023/09/17 00:58:33;;;;;;;44.33;35.53;;;;;;;;;;5093953;28;20054;-68
2023/09/17 01:00:58;;;;;;;47.45;35.38;;;;;;;;;;5080011;28;20024;-67
2023/09/17 01:03:25;;;;;;;46.63;36.95;;;;;;;;;;5093504;28;20021;-67
2023/09/17 01:05:51;;;;;;;47.03;39.13;;;;;;;;;;5092966;28;20100;-68
2023/09/17 01:08:16;;;;;;;51.13;38.45;;;;;;;;;;5093849;28;20067;-67
2023/09/17 01:10:42;;;;;;;49.15;39.75;;;;;;;;;;5092481;28;20028;-67
2023/09/17 01:13:08;;;;;;;51.05;39.10;;;;;;;;;;5093997;28;20166;-68
2023/09/17 01:15:34;;;;;;;50.97;39.00;;;;;;;;;;5073577;28;20029;-69
2023/09/17 01:18:00;;;;;;;54.10;40.15;;;;;;;;;;5073832;28;20028;-67
2023/09/17 01:20:29;;;;;;;52.55;39.85;;;;;;;;;;5076470;28;20021;-67
2023/09/17 01:22:56;;;;;;;54.58;41.45;;;;;;;;;;5075191;28;20555;-67
2023/09/17 01:25:28;;;;;;;56.92;41.83;;;;;;;;;;5056096;28;20813;-68
2023/09/17 01:27:54;;;;;;;54.42;41.22;;;;;;;;;;5045636;28;20120;-67
2023/09/17 01:30:21;;;;;;;52.72;42.30;;;;;;;;;;5047638;28;20139;-68
2023/09/17 01:32:47;;;;;;;52.28;41.25;;;;;;;;;;5040927;28;20073;-68
2023/09/17 01:35:13;;;;;;;60.83;44.65;;;;;;;;;;5046327;28;20886;-68
2023/09/17 01:37:41;;;;;;;53.65;40.10;;;;;;;;;;5047375;28;20039;-66
2023/09/17 01:40:10;;;;;;;63.30;44.33;;;;;;;;;;5045943;28;20100;-67
2023/09/17 01:42:36;;;;;;;57.22;44.80;;;;;;;;;;5042069;28;20032;-67
2023/09/17 01:45:04;;;;;;;65.95;44.95;;;;;;;;;;5036484;28;20538;-68
2023/09/17 01:47:30;;;;;;;63.53;48.50;;;;;;;;;;5081543;28;20028;-67
2023/09/17 01:49:59;;;;;;;67.10;46.00;;;;;;;;;;5082352;28;20061;-67
2023/09/17 01:52:26;;;;;;;65.22;49.03;;;;;;;;;;5090612;28;20035;-66
2023/09/17 01:54:52;;;;;;;60.35;48.13;;;;;;;;;;5090864;28;20016;-66
2023/09/17 01:57:17;;;;;;;67.55;48.58;;;;;;;;;;5089866;28;20020;-67
2023/09/17 01:59:42;;;;;;;60.22;46.38;;;;;;;;;;5084399;28;20036;-68
2023/09/17 02:02:07;;;;;;;65.60;48.43;;;;;;;;;;5079208;28;20050;-67
2023/09/17 02:04:33;;;;;;;67.93;49.47;;;;;;;;;;5063052;28;20294;-67
2023/09/17 02:06:58;;;;;;;67.17;48.17;;;;;;;;;;5037130;28;20282;-67
2023/09/17 02:09:23;;;;;;;70.97;50.20;;;;;;;;;;5045965;28;21217;-68
2023/09/17 02:11:49;;;;;;;71.30;49.93;;;;;;;;;;5043626;28;20020;-68
2023/09/17 02:14:15;;;;;;;65.63;48.92;;;;;;;;;;5044171;28;20321;-68
2023/09/17 02:16:40;;;;;;;65.10;47.65;;;;;;;;;;5043914;28;20024;-66
2023/09/17 02:19:06;;;;;;;64.70;48.38;;;;;;;;;;5044659;28;20020;-68
2023/09/17 02:21:31;;;;;;;70.47;49.70;;;;;;;;;;5043319;28;20019;-67
2023/09/17 02:23:56;;;;;;;73.82;52.17;;;;;;;;;;5042924;28;20924;-67
2023/09/17 02:26:22;;;;;;;70.57;51.35;;;;;;;;;;5044149;28;20027;-67
2023/09/17 02:28:47;;;;;;;70.73;48.23;;;;;;;;;;5042775;28;21032;-68
2023/09/17 02:31:13;;;;;;;79.50;51.00;;;;;;;;;;5039744;28;20298;-67
2023/09/17 02:33:38;;;;;;;69.47;49.83;;;;;;;;;;5035754;28;20081;-67
2023/09/17 02:36:05;;;;;;;76.63;51.00;;;;;;;;;;5034547;28;20062;-67
2023/09/17 02:38:31;;;;;;;77.68;53.92;;;;;;;;;;5039599;28;20028;-67
2023/09/17 02:40:56;;;;;;;69.23;52.67;;;;;;;;;;5040552;28;20079;-67
2023/09/17 02:43:21;;;;;;;85.43;57.08;;;;;;;;;;5045079;28;20262;-67
2023/09/17 02:45:49;;;;;;;79.97;56.88;;;;;;;;;;5078259;28;20066;-67
2023/09/17 02:48:14;;;;;;;77.22;54.30;;;;;;;;;;5080147;28;20036;-67
2023/09/17 02:50:39;;;;;;;83.40;54.05;;;;;;;;;;5078327;28;20472;-68
2023/09/17 02:53:05;;;;;;;86.78;58.10;;;;;;;;;;5084998;28;20032;-68
2023/09/17 02:55:32;;;;;;;85.05;58.22;;;;;;;;;;5080565;28;20030;-67
2023/09/17 02:57:57;;;;;;;70.55;54.05;;;;;;;;;;5072270;28;20062;-68
2023/09/17 03:00:22;;;;;;;87.30;59.63;;;;;;;;;;5080140;28;20025;-68
2023/09/17 03:02:54;;;;;;;86.15;58.17;;;;;;;;;;5073228;28;20376;-67
2023/09/17 03:05:20;;;;;;;85.43;59.22;;;;;;;;;;5072382;28;20502;-68
2023/09/17 03:07:46;;;;;;;81.30;55.97;;;;;;;;;;5072766;28;20059;-68
2023/09/17 03:10:12;;;;;;;78.10;56.38;;;;;;;;;;5073193;28;20040;-69
2023/09/17 03:12:41;;;;;;;89.05;59.22;;;;;;;;;;5078529;28;20023;-69
2023/09/17 03:15:07;;;;;;;83.50;57.45;;;;;;;;;;5091552;28;20390;-69
2023/09/17 03:17:35;;;;;;;86.18;58.22;;;;;;;;;;5089710;28;20016;-69
2023/09/17 03:20:05;;;;;;;88.88;57.97;;;;;;;;;;5090722;28;20062;-69
2023/09/17 03:22:30;;;;;;;96.53;61.40;;;;;;;;;;5089873;28;20028;-69
2023/09/17 03:24:56;;;;;;;99.63;61.20;;;;;;;;;;5087716;28;20395;-70
2023/09/17 03:27:21;;;;;;;88.10;56.55;;;;;;;;;;5089697;28;20384;-70
2023/09/17 03:29:46;;;;;;;85.90;59.57;;;;;;;;;;5063737;28;20027;-70
2023/09/17 03:32:11;;;;;;;96.43;63.87;;;;;;;;;;5046429;28;20273;-69
2023/09/17 03:34:37;;;;;;;86.63;58.43;;;;;;;;;;5038075;28;21231;-70
2023/09/17 03:37:03;;;;;;;89.70;61.38;;;;;;;;;;5059506;28;20270;-70
2023/09/17 03:39:28;;;;;;;83.10;59.53;;;;;;;;;;5090251;28;20482;-70
2023/09/17 03:41:53;;;;;;;94.75;60.17;;;;;;;;;;5089409;28;20471;-70
2023/09/17 03:44:19;;;;;;;93.95;59.97;;;;;;;;;;5079950;28;20012;-69
2023/09/17 03:46:44;;;;;;;96.93;62.25;;;;;;;;;;5078748;28;20531;-70
2023/09/17 03:49:09;;;;;;;88.70;58.72;;;;;;;;;;5086343;28;20056;-70
2023/09/17 03:51:35;;;;;;;90.80;57.17;;;;;;;;;;5086870;28;20070;-70
2023/09/17 03:54:00;;;;;;;88.80;58.35;;;;;;;;;;5081641;28;20040;-70
2023/09/17 03:56:26;;;;;;;91.13;59.30;;;;;;;;;;5091362;28;20020;-69
2023/09/17 03:58:52;;;;;;;81.75;59.35;;;;;;;;;;5082526;28;20049;-69
2023/09/17 04:01:18;;;;;;;83.95;58.28;;;;;;;;;;5069172;28;20457;-70
2023/09/17 04:03:44;;;;;;;88.65;58.92;;;;;;;;;;5090833;28;20039;-70
2023/09/17 04:06:09;;;;;;;84.05;55.63;;;;;;;;;;5041391;28;20130;-68
2023/09/17 04:08:35;;;;;;;110.55;56.78;;;;;;;;;;5045350;28;20058;-69
2023/09/17 04:11:00;;;;;;;83.78;55.22;;;;;;;;;;5053121;28;20534;-68
2023/09/17 04:13:27;;;;;;;80.97;54.10;;;;;;;;;;5079224;28;20024;-68
2023/09/17 04:15:53;;;;;;;83.53;51.67;;;;;;;;;;5085277;28;20322;-68
2023/09/17 04:18:18;;;;;;;83.43;51.63;;;;;;;;;;5088770;28;20098;-68
2023/09/17 04:20:43;;;;;;;85.30;53.08;;;;;;;;;;5085888;28;20043;-67
2023/09/17 04:23:09;;;;;;;73.28;50.38;;;;;;;;;;5088392;28;20035;-67
2023/09/17 04:25:35;;;;;;;80.57;50.60;;;;;;;;;;5085561;28;20009;-68
2023/09/17 04:28:02;;;;;;;83.05;50.75;;;;;;;;;;5091246;28;20497;-68
2023/09/17 04:30:27;;;;;;;100.80;50.22;;;;;;;;;;5085731;28;20073;-68
2023/09/17 04:32:54;;;;;;;86.15;50.63;;;;;;;;;;5088656;28;20024;-69
2023/09/17 04:35:20;;;;;;;72.93;48.88;;;;;;;;;;5085773;28;20024;-69
2023/09/17 04:37:46;;;;;;;72.10;49.97;;;;;;;;;;5088915;28;20103;-69
2023/09/17 04:40:11;;;;;;;77.88;49.60;;;;;;;;;;5086136;28;20038;-69
2023/09/17 04:42:43;;;;;;;81.85;49.38;;;;;;;;;;5090684;28;20020;-68
2023/09/17 04:45:08;;;;;;;81.97;48.53;;;;;;;;;;5078784;28;20039;-69
2023/09/17 04:47:34;;;;;;;92.45;50.20;;;;;;;;;;5072747;28;20028;-69
2023/09/17 04:50:00;;;;;;;70.50;46.55;;;;;;;;;;5076803;28;20067;-69
2023/09/17 04:52:25;;;;;;;70.70;45.20;;;;;;;;;;5073761;28;20024;-69
2023/09/17 04:54:50;;;;;;;73.97;46.47;;;;;;;;;;5081839;28;20416;-68
2023/09/17 04:57:15;;;;;;;72.75;45.80;;;;;;;;;;5092666;28;20024;-68
2023/09/17 04:59:41;;;;;;;73.37;47.87;;;;;;;;;;5092724;28;20028;-68
2023/09/17 05:02:06;;;;;;;74.13;43.75;;;;;;;;;;5090132;28;20262;-68
2023/09/17 05:04:31;;;;;;;67.53;44.23;;;;;;;;;;5067962;28;20036;-68
2023/09/17 05:06:57;;;;;;;65.93;42.42;;;;;;;;;;5043915;28;20336;-68
2023/09/17 05:09:22;;;;;;;65.60;42.13;;;;;;;;;;5033695;28;20814;-68
2023/09/17 05:11:47;;;;;;;75.50;42.17;;;;;;;;;;5037618;28;20813;-68
2023/09/17 05:14:13;;;;;;;61.40;40.95;;;;;;;;;;5041151;28;20028;-68
2023/09/17 05:16:38;;;;;;;56.93;38.43;;;;;;;;;;5044496;28;20031;-69
2023/09/17 05:19:03;;;;;;;60.53;37.90;;;;;;;;;;5046582;28;21078;-69
2023/09/17 05:21:29;;;;;;;73.90;40.20;;;;;;;;;;5046882;28;20268;-68
2023/09/17 05:23:54;;;;;;;57.45;38.22;;;;;;;;;;5046149;28;20339;-68
2023/09/17 05:26:21;;;;;;;64.43;38.97;;;;;;;;;;5037465;28;20042;-68
2023/09/17 05:28:46;;;;;;;54.58;37.35;;;;;;;;;;5045244;28;20294;-68
2023/09/17 05:31:11;;;;;;;65.43;39.70;;;;;;;;;;5032830;28;20782;-68
2023/09/17 05:33:36;;;;;;;52.90;36.17;;;;;;;;;;5055169;28;20669;-69
2023/09/17 05:36:02;;;;;;;57.57;37.80;;;;;;;;;;5074704;28;20036;-69
2023/09/17 05:38:28;;;;;;;62.88;36.85;;;;;;;;;;5066263;28;20099;-69
2023/09/17 05:40:53;;;;;;;54.60;35.15;;;;;;;;;;5042788;28;20051;-69
2023/09/17 05:43:19;;;;;;;52.22;34.78;;;;;;;;;;5038166;28;20758;-69
2023/09/17 05:45:44;;;;;;;61.63;37.88;;;;;;;;;;5046924;28;20024;-69
2023/09/17 05:48:10;;;;;;;48.70;34.03;;;;;;;;;;5047085;28;20075;-67
2023/09/17 05:50:35;;;;;;;48.23;33.93;;;;;;;;;;5048174;28;21116;-67
2023/09/17 05:53:01;;;;;;;56.45;36.60;;;;;;;;;;5048769;28;20377;-68
2023/09/17 05:55:26;;;;;;;55.93;35.77;;;;;;;;;;5046120;28;20082;-68
2023/09/17 05:57:51;;;;;;;53.35;34.38;;;;;;;;;;5081437;28;20318;-69
2023/09/17 06:00:17;;;;;;;53.40;35.40;;;;;;;;;;5074742;28;20421;-69
2023/09/17 06:02:42;;;;;;;51.83;34.80;;;;;;;;;;5074539;28;20371;-69
2023/09/17 06:05:08;;;;;;;51.40;31.63;;;;;;;;;;5078526;28;20115;-69
2023/09/17 06:07:33;;;;;;;51.42;33.38;;;;;;;;;;5093232;28;20561;-69
2023/09/17 06:09:58;;;;;;;67.05;33.05;;;;;;;;;;5078846;28;20032;-69
2023/09/17 06:12:24;;;;;;;50.72;32.72;;;;;;;;;;5083101;28;20016;-69
2023/09/17 06:14:49;;;;;;;44.58;28.77;;;;;;;;;;5077342;28;20099;-69
2023/09/17 06:17:15;;;;;;;49.63;32.42;;;;;;;;;;5075375;28;20082;-69
2023/09/17 06:19:40;;;;;;;57.10;32.20;;;;;;;;;;5081278;28;20024;-69
2023/09/17 06:22:05;;;;;;;49.97;32.13;;;;;;;;;;5082721;28;20020;-69
2023/09/17 06:24:31;;;;;;;44.22;29.75;;;;;;;;;;5081204;28;20254;-69
2023/09/17 06:26:56;;;;;;;48.13;30.27;;;;;;;;;;5082311;28;20016;-69
2023/09/17 06:29:21;;;;;;;49.70;30.65;;;;;;;;;;5096432;28;20028;-69
2023/09/17 06:31:47;;;;;;;54.03;31.48;;;;;;;;;;5074702;28;20159;-69
2023/09/17 06:34:12;;;;;;;49.25;30.17;;;;;;;;;;5076662;28;20111;-69
2023/09/17 06:36:38;;;;;;;45.35;30.38;;;;;;;;;;5074906;28;20045;-69
2023/09/17 06:39:04;;;;;;;40.65;27.75;;;;;;;;;;5076909;28;20016;-69
2023/09/17 06:41:29;;;;;;;44.15;28.90;;;;;;;;;;5084834;28;20173;-69
2023/09/17 06:43:55;;;;;;;39.55;26.77;;;;;;;;;;5090966;28;20091;-69
2023/09/17 06:46:23;;;;;;;42.08;27.55;;;;;;;;;;5092565;28;20150;-69
2023/09/17 06:48:49;;;;;;;44.67;27.63;;;;;;;;;;5087455;28;20129;-70
2023/09/17 06:51:14;;;;;;;39.30;27.25;;;;;;;;;;5091935;28;20491;-68
2023/09/17 06:53:39;;;;;;;34.88;24.20;;;;;;;;;;5092241;28;20471;-69
2023/09/17 06:56:05;;;;;;;37.67;25.03;;;;;;;;;;5091295;28;20028;-69
2023/09/17 06:58:30;;;;;;;33.33;24.45;;;;;;;;;;5091971;28;20771;-69
2023/09/17 07:00:56;;;;;;;34.13;23.48;;;;;;;;;;5074836;28;20116;-69
2023/09/17 07:03:21;;;;;;;33.93;23.40;;;;;;;;;;5073256;28;20036;-69
2023/09/17 07:05:47;;;;;;;27.80;20.13;;;;;;;;;;5078837;28;20372;-69
2023/09/17 07:08:12;;;;;;;32.83;20.92;;;;;;;;;;5101069;28;20327;-70
2023/09/17 07:10:37;;;;;;;30.50;20.27;;;;;;;;;;5081647;28;20024;-69
2023/09/17 07:13:02;;;;;;;27.37;20.50;;;;;;;;;;5056997;28;20033;-69
2023/09/17 07:15:28;;;;;;;27.08;19.15;;;;;;;;;;5030643;28;20289;-69
2023/09/17 07:17:54;;;;;;;25.23;18.30;;;;;;;;;;5063780;28;20023;-69
2023/09/17 07:20:19;;;;;;;24.13;16.77;;;;;;;;;;5081477;28;20028;-70
2023/09/17 07:22:45;;;;;;;19.20;16.55;;;;;;;;;;5083088;28;20069;-69
2023/09/17 07:25:10;;;;;;;20.58;16.15;;;;;;;;;;5060458;28;20457;-69
2023/09/17 07:27:35;;;;;;;20.20;15.32;;;;;;;;;;5082170;28;20028;-69
2023/09/17 07:30:01;;;;;;;19.58;16.17;;;;;;;;;;5085849;28;20029;-69
2023/09/17 07:32:27;;;;;;;17.20;14.73;;;;;;;;;;5083943;28;20433;-69
2023/09/17 07:34:52;;;;;;;17.33;14.75;;;;;;;;;;5074348;28;20035;-69
2023/09/17 07:37:19;;;;;;;19.98;16.00;;;;;;;;;;5080777;28;20024;-69
2023/09/17 07:39:46;;;;;;;16.50;14.32;;;;;;;;;;5077294;28;20029;-69
2023/09/17 07:42:11;;;;;;;20.85;15.23;;;;;;;;;;5079797;28;20036;-69
2023/09/17 07:44:37;;;;;;;17.45;14.95;;;;;;;;;;5076781;28;20054;-69
2023/09/17 07:47:02;;;;;;;19.85;15.93;;;;;;;;;;5075087;28;20017;-69
2023/09/17 07:49:28;;;;;;;18.08;15.88;;;;;;;;;;5085749;28;20031;-69
2023/09/17 07:51:53;;;;;;;17.73;15.05;;;;;;;;;;5088195;28;20020;-69
2023/09/17 07:54:21;;;;;;;20.37;15.10;;;;;;;;;;5086259;28;20024;-71
2023/09/17 07:56:46;;;;;;;19.55;15.00;;;;;;;;;;5087159;28;20744;-69
2023/09/17 07:59:11;;;;;;;22.40;15.23;;;;;;;;;;5086022;28;20145;-68
2023/09/17 08:01:36;;;;;;;17.97;15.23;;;;;;;;;;5086004;28;20285;-68
2023/09/17 08:04:02;;;;;;;16.75;14.73;;;;;;;;;;5081410;28;20629;-68
2023/09/17 08:06:27;;;;;;;20.00;14.57;;;;;;;;;;5073838;28;20029;-69
2023/09/17 08:08:53;;;;;;;16.25;14.27;;;;;;;;;;5087739;28;20387;-70
2023/09/17 08:11:19;;;;;;;14.13;12.47;;;;;;;;;;5087868;28;20028;-71
2023/09/17 08:13:44;;;;;;;17.65;13.20;;;;;;;;;;5085159;28;20310;-67
2023/09/17 08:16:10;;;;;;;14.02;11.80;;;;;;;;;;5081864;28;20701;-68
2023/09/17 08:18:35;;;;;;;14.75;12.15;;;;;;;;;;5072565;28;20025;-69
2023/09/17 08:21:00;;;;;;;15.20;12.43;;;;;;;;;;5042068;28;20017;-68
2023/09/17 08:23:26;;;;;;;15.13;12.48;;;;;;;;;;5040216;28;20846;-68
2023/09/17 08:25:52;;;;;;;12.40;11.13;;;;;;;;;;5045346;28;20024;-69
2023/09/17 08:28:18;;;;;;;12.05;10.85;;;;;;;;;;5047256;28;20394;-70
2023/09/17 08:30:43;;;;;;;11.90;10.60;;;;;;;;;;5038353;28;20020;-69
2023/09/17 08:33:10;;;;;;;13.05;11.68;;;;;;;;;;5045910;28;20061;-69
2023/09/17 08:35:36;;;;;;;15.93;10.73;;;;;;;;;;5046128;28;20924;-68
2023/09/17 08:38:01;;;;;;;12.43;10.50;;;;;;;;;;5044496;28;20021;-68
2023/09/17 08:40:27;;;;;;;13.40;10.20;;;;;;;;;;5041326;28;21232;-68
2023/09/17 08:42:54;;;;;;;11.68;10.35;;;;;;;;;;5047130;28;20307;-67
2023/09/17 08:45:20;;;;;;;12.68;10.32;;;;;;;;;;5041422;28;20032;-69
2023/09/17 08:47:46;;;;;;;11.95;10.50;;;;;;;;;;5044266;28;20870;-69
2023/09/17 08:50:11;;;;;;;12.00;10.65;;;;;;;;;;5041413;28;20055;-72
2023/09/17 08:52:40;;;;;;;12.88;10.23;;;;;;;;;;5046054;28;20023;-68
2023/09/17 08:55:08;;;;;;;11.55;10.15;;;;;;;;;;5047978;28;20082;-69
2023/09/17 08:57:36;;;;;;;13.00;9.60;;;;;;;;;;5048763;28;20784;-69
2023/09/17 09:00:09;;;;;;;10.45;8.80;;;;;;;;;;5047550;28;20057;-70
2023/09/17 09:02:47;;;;;;;11.47;10.03;;;;;;;;;;5048519;28;20093;-67
2023/09/17 09:05:16;;;;;;;9.75;8.75;;;;;;;;;;5045714;28;20341;-66
2023/09/17 09:07:43;;;;;;;10.57;8.77;;;;;;;;;;5037749;28;20129;-67
2023/09/17 09:10:09;;;;;;;12.25;9.52;;;;;;;;;;5038818;28;20862;-68
2023/09/17 09:12:36;;;;;;;10.07;8.88;;;;;;;;;;5036742;28;20021;-70
2023/09/17 09:15:03;;;;;;;12.40;9.18;;;;;;;;;;5048055;28;20016;-69
2023/09/17 09:17:28;;;;;;;11.88;8.70;;;;;;;;;;5047039;28;20082;-69
2023/09/17 09:19:55;;;;;;;9.80;8.80;;;;;;;;;;5043565;28;20914;-68
2023/09/17 09:22:23;;;;;;;10.30;8.77;;;;;;;;;;5039326;28;20017;-67
2023/09/17 09:24:48;;;;;;;11.05;8.52;;;;;;;;;;5040750;28;20027;-68
2023/09/17 09:27:14;;;;;;;9.25;8.30;;;;;;;;;;5042496;28;20918;-67
2023/09/17 09:29:42;;;;;;;10.25;7.75;;;;;;;;;;5046279;28;20897;-67
2023/09/17 09:32:09;;;;;;;8.35;7.40;;;;;;;;;;5046114;28;20035;-68
2023/09/17 09:34:38;;;;;;;8.10;7.32;;;;;;;;;;5054092;28;20028;-67
2023/09/17 09:37:06;;;;;;;7.95;7.15;;;;;;;;;;5081831;28;20082;-68
2023/09/17 09:39:31;;;;;;;8.95;6.40;;;;;;;;;;5077407;28;20012;-68
2023/09/17 09:41:57;;;;;;;8.50;7.13;;;;;;;;;;5085492;28;20074;-68
2023/09/17 09:44:25;;;;;;;8.57;6.60;;;;;;;;;;5077880;28;20020;-69
2023/09/17 09:46:55;;;;;;;8.35;7.40;;;;;;;;;;5083514;28;20030;-70
2023/09/17 09:49:20;;;;;;;7.35;6.65;;;;;;;;;;5047536;28;20078;-70
2023/09/17 09:51:47;;;;;;;8.30;7.40;;;;;;;;;;5074352;28;20471;-70
2023/09/17 09:54:12;;;;;;;8.50;6.88;;;;;;;;;;5069343;28;20649;-70
2023/09/17 09:56:37;;;;;;;8.00;7.20;;;;;;;;;;5086716;28;20020;-71
2023/09/17 09:59:05;;;;;;;8.73;6.50;;;;;;;;;;5085283;28;20274;-69
2023/09/17 10:01:30;;;;;;;6.60;6.00;;;;;;;;;;5085865;28;20028;-69
2023/09/17 10:03:56;;;;;;;7.55;6.68;;;;;;;;;;5081759;28;20070;-69
2023/09/17 10:06:22;;;;;;;10.07;7.28;;;;;;;;;;5083079;28;20030;-69
2023/09/17 10:08:48;;;;;;;8.40;7.25;;;;;;;;;;5087358;28;20024;-70
2023/09/17 10:11:14;;;;;;;8.05;5.28;;;;;;;;;;5077499;28;20399;-69
2023/09/17 10:13:42;;;;;;;8.57;6.03;;;;;;;;;;5082064;28;20047;-68
2023/09/17 10:16:07;;;;;;;7.32;5.40;;;;;;;;;;5076816;28;20020;-69
2023/09/17 10:18:33;;;;;;;8.87;6.03;;;;;;;;;;5082881;28;20395;-69
2023/09/17 10:20:59;;;;;;;6.63;5.47;;;;;;;;;;5077677;28;20277;-68
2023/09/17 10:23:26;;;;;;;7.18;5.88;;;;;;;;;;5077273;28;20107;-69
2023/09/17 10:25:52;;;;;;;6.43;4.97;;;;;;;;;;5076590;28;20074;-69
2023/09/17 10:28:18;;;;;;;6.18;5.30;;;;;;;;;;5066781;28;20394;-69
2023/09/17 10:30:45;;;;;;;5.38;4.53;;;;;;;;;;5079936;28;20024;-69
2023/09/17 10:33:11;;;;;;;6.15;4.63;;;;;;;;;;5084529;28;20063;-68
2023/09/17 10:35:38;;;;;;;5.82;4.63;;;;;;;;;;5070843;28;20533;-69
2023/09/17 10:38:05;;;;;;;6.57;4.75;;;;;;;;;;5079542;28;20036;-68
2023/09/17 10:40:30;;;;;;;5.68;4.40;;;;;;;;;;5088360;28;20024;-68
2023/09/17 10:42:57;;;;;;;5.10;4.18;;;;;;;;;;5082718;28;20347;-71
2023/09/17 10:45:23;;;;;;;5.90;4.85;;;;;;;;;;5086389;28;20074;-71
2023/09/17 10:47:50;;;;;;;5.28;4.78;;;;;;;;;;5070982;28;20064;-71
2023/09/17 10:50:15;;;;;;;6.20;4.50;;;;;;;;;;5071743;28;20066;-71
2023/09/17 10:52:40;;;;;;;5.50;4.28;;;;;;;;;;5083529;28;20059;-73
2023/09/17 10:55:08;;;;;;;5.00;4.35;;;;;;;;;;5081697;28;20038;-72
2023/09/17 10:57:40;;;;;;;5.45;4.57;;;;;;;;;;5079110;28;20038;-73
2023/09/17 11:00:17;;;;;;;6.15;5.15;;;;;;;;;;5075077;28;20050;-73
2023/09/17 11:02:45;;;;;;;5.70;4.78;;;;;;;;;;5075757;28;20386;-72
2023/09/17 11:05:11;;;;;;;5.68;5.07;;;;;;;;;;5060949;28;20056;-74
2023/09/17 11:07:37;;;;;;;5.47;4.78;;;;;;;;;;5077254;28;20036;-73
2023/09/17 11:10:04;;;;;;;7.00;4.88;;;;;;;;;;5077751;28;20055;-72
2023/09/17 11:12:29;;;;;;;7.57;5.32;;;;;;;;;;5077024;28;20028;-72
2023/09/17 11:14:55;;;;;;;6.03;4.45;;;;;;;;;;5077176;28;20035;-73
2023/09/17 11:17:29;;;;;;;6.13;5.23;;;;;;;;;;5077309;28;20070;-73
2023/09/17 11:19:54;;;;;;;;;;;;;;;;;;5079611;28;20270;-73
2023/09/17 11:22:19;;;;;;;6.15;4.82;;;;;;;;;;5076049;28;19923;-73
2023/09/17 11:24:44;;;;;;;7.13;5.27;;;;;;;;;;5082232;28;20150;-73
2023/09/17 11:27:12;;;;;;;6.63;4.97;;;;;;;;;;5075925;28;20290;-73
2023/09/17 11:29:38;;;;;;;6.13;4.88;;;;;;;;;;5076933;28;20274;-72
2023/09/17 11:32:04;;;;;;;5.45;4.75;;;;;;;;;;5075382;28;20036;-72
2023/09/17 11:34:29;;;;;;;5.72;4.63;;;;;;;;;;5077437;28;20471;-71
2023/09/17 11:36:57;;;;;;;5.68;4.60;;;;;;;;;;5078039;28;20020;-72
2023/09/17 11:39:23;;;;;;;6.15;4.93;;;;;;;;;;5072553;28;20021;-73
2023/09/17 11:41:52;;;;;;;5.00;4.03;;;;;;;;;;5085578;28;20398;-74
2023/09/17 11:44:17;;;;;;;6.22;4.07;;;;;;;;;;5070624;28;20021;-74
2023/09/17 11:46:43;;;;;;;4.95;3.75;;;;;;;;;;5071320;28;20139;-72
2023/09/17 11:49:11;;;;;;;5.43;3.70;;;;;;;;;;5084499;28;20032;-72
2023/09/17 11:51:44;;;;;;;6.38;3.58;;;;;;;;;;5083930;28;20025;-73
2023/09/17 11:54:30;;;;;;;6.03;3.63;;;;;;;;;;5087651;28;20120;-72
2023/09/17 11:56:55;;;;;;;4.70;3.65;;;;;;;;;;5082434;28;20029;-73
2023/09/17 11:59:22;;;;;;;4.20;3.63;;;;;;;;;;5085226;28;20359;-73
2023/09/17 12:01:47;;;;;;;5.07;4.05;;;;;;;;;;5085496;28;20024;-73
2023/09/17 12:04:13;;;;;;;5.35;3.17;;;;;;;;;;5088678;28;20028;-74
2023/09/17 12:06:39;;;;;;;5.20;3.10;;;;;;;;;;5085582;28;20020;-72
2023/09/17 12:09:15;;;;;;;4.05;3.17;;;;;;;;;;5089699;28;20041;-73
2023/09/17 12:11:41;;;;;;;4.68;2.72;;;;;;;;;;5087050;28;20032;-73
2023/09/17 12:14:06;;;;;;;5.97;2.58;;;;;;;;;;5090498;28;20077;-73
2023/09/17 12:16:32;;;;;;;4.50;2.67;;;;;;;;;;5086982;28;20077;-73
2023/09/17 12:18:57;;;;;;;4.13;2.45;;;;;;;;;;5091469;28;20024;-73
2023/09/17 12:21:27;;;;;;;3.92;2.53;;;;;;;;;;5091321;28;20020;-72
2023/09/17 12:24:05;;;;;;;5.00;2.80;;;;;;;;;;5093241;28;20044;-73
2023/09/17 12:29:41;;;;;;;5.95;2.65;;;;;;;;;;5087205;28;20082;-73
2023/09/17 12:32:06;;;;;;;4.90;2.85;;;;;;;;;;5090979;28;20028;-73
2023/09/17 12:34:35;;;;;;;4.10;2.60;;;;;;;;;;5087050;28;20025;-73
2023/09/17 12:37:00;;;;;;;4.63;2.63;;;;;;;;;;5090330;28;20031;-72
2023/09/17 12:39:26;;;;;;;3.87;2.53;;;;;;;;;;5089850;28;20016;-72
2023/09/17 12:41:51;;;;;;;4.53;2.83;;;;;;;;;;5089804;28;20387;-72
2023/09/17 12:44:17;;;;;;;3.90;2.60;;;;;;;;;;5078187;28;20020;-73
2023/09/17 12:46:42;;;;;;;5.15;2.75;;;;;;;;;;5070040;28;20024;-73
2023/09/17 12:49:07;;;;;;;3.85;2.70;;;;;;;;;;5086017;28;20036;-72
2023/09/17 12:51:34;;;;;;;4.07;2.60;;;;;;;;;;5077872;28;20030;-72
2023/09/17 12:53:59;;;;;;;4.78;2.50;;;;;;;;;;5080421;28;20052;-72
2023/09/17 12:56:28;;;;;;;4.88;2.50;;;;;;;;;;5076869;28;20106;-72
2023/09/17 12:58:53;;;;;;;3.53;2.55;;;;;;;;;;5078851;28;20103;-72
2023/09/17 13:01:18;;;;;;;3.58;2.63;;;;;;;;;;5078387;28;20150;-72
2023/09/17 13:03:55;;;;;;;3.88;2.45;;;;;;;;;;5083030;28;20024;-72
2023/09/17 13:06:20;;;;;;;3.25;2.20;;;;;;;;;;5079593;28;20040;-72
2023/09/17 13:08:46;;;;;;;3.78;2.53;;;;;;;;;;5081465;28;20414;-72
2023/09/17 13:11:12;;;;;;;4.35;2.35;;;;;;;;;;5067977;28;20054;-72
2023/09/17 13:13:37;;;;;;;4.33;2.50;;;;;;;;;;5088991;28;20027;-71
2023/09/17 13:16:02;;;;;;;3.88;2.60;;;;;;;;;;5079163;28;20603;-73
2023/09/17 13:18:28;;;;;;;6.47;2.80;;;;;;;;;;5092950;28;20500;-73
2023/09/17 13:20:53;;;;;;;3.72;2.55;;;;;;;;;;5079138;28;20463;-72
2023/09/17 13:23:18;;;;;;;3.80;2.47;;;;;;;;;;5078048;28;20579;-72
2023/09/17 13:25:44;;;;;;;4.13;2.55;;;;;;;;;;5078554;28;20391;-73
2023/09/17 13:28:12;;;;;;;5.05;2.35;;;;;;;;;;5081005;28;20069;-73
2023/09/17 13:30:38;;;;;;;3.45;2.60;;;;;;;;;;5084565;28;20096;-72
2023/09/17 13:33:04;;;;;;;4.00;2.50;;;;;;;;;;5080357;28;20115;-73
2023/09/17 13:35:29;;;;;;;4.32;2.92;;;;;;;;;;5086248;28;20294;-72
2023/09/17 13:37:55;;;;;;;3.78;2.78;;;;;;;;;;5078632;28;20020;-73
2023/09/17 13:40:20;;;;;;;5.30;2.40;;;;;;;;;;5082413;28;20016;-72
2023/09/17 13:42:45;;;;;;;4.47;2.80;;;;;;;;;;5090843;28;21362;-72
2023/09/17 13:45:12;;;;;;;4.68;2.60;;;;;;;;;;5078948;28;20013;-72
2023/09/17 13:47:37;;;;;;;4.10;2.80;;;;;;;;;;5079211;28;20085;-72
2023/09/17 13:50:03;;;;;;;4.27;2.87;;;;;;;;;;5093237;28;20394;-72
2023/09/17 13:52:28;;;;;;;4.25;3.22;;;;;;;;;;5092356;28;20326;-73
2023/09/17 13:54:54;;;;;;;3.80;2.40;;;;;;;;;;5093477;28;20027;-72
2023/09/17 13:57:19;;;;;;;5.53;2.80;;;;;;;;;;5090988;28;20365;-73
2023/09/17 13:59:44;;;;;;;4.35;2.45;;;;;;;;;;5081789;28;20020;-72
2023/09/17 14:02:11;;;;;;;7.83;3.07;;;;;;;;;;5079555;28;20756;-72
2023/09/17 14:04:36;;;;;;;4.00;3.00;;;;;;;;;;5093104;28;20044;-72
2023/09/17 14:07:02;;;;;;;5.20;2.90;;;;;;;;;;5092775;28;20121;-72
2023/09/17 14:09:27;;;;;;;3.85;3.00;;;;;;;;;;5092593;28;20052;-72
2023/09/17 14:11:52;;;;;;;3.77;2.97;;;;;;;;;;5092374;28;20064;-72
2023/09/17 14:14:18;;;;;;;4.07;3.23;;;;;;;;;;5093053;28;20346;-72
2023/09/17 14:16:44;;;;;;;5.07;2.90;;;;;;;;;;5080060;28;20293;-72
2023/09/17 14:19:12;;;;;;;9.20;2.92;;;;;;;;;;5075221;28;20047;-72
2023/09/17 14:21:40;;;;;;;4.47;3.05;;;;;;;;;;5075043;28;20411;-72